CYCX

CFB Gagetown Heliport

Gagetown, New Brunswick, Canada
METAR CYCX 192000Z 32011KT 280V340 15SM SCT052 20/09 A2961 RMK CU4 DA1320FT SLP028
Observed Flight Rules
Jun-19 @ 20:00 UTC (18 minutes ago) Visual Flight Rules
Wind Visibility Clouds
320° at 11 knots 15 miles
  • Scattered at 5,200' AGL
Temperatures Readings
Current 20°C / 68°F
Dewpoint 9°C / 48°F
Humidity 49%
Altimeter 29.61" Hg
Pressure 1002.8 hPa
Elevation 51
METAR CYCX 192000Z 32011KT 280V340 15SM SCT052 20/09 A2961 RMK CU4 DA1320FT SLP028
Observed Flight Rules
Jun-19 @ 20:00 UTC
(18 minutes ago)
VFR
Wind Visibility
320° at 11 knots 15 miles
Clouds
  • Scattered at 5,200' AGL
Temperature Dewpoint
20°C / 68°F 9°C / 48°F
Humidity Altimeter Pressure
49% 29.61" Hg 1002.8 hPa